sensor_id;sensor_type;location;lat;lon;timestamp;P1;durP1;ratioP1;P2;durP2;ratioP2
15273;SDS011;7738;49.532;11.156;2024-03-23T00:55:46;6.85;;;4.10;;
15273;SDS011;7738;49.532;11.156;2024-03-23T00:58:13;8.05;;;4.00;;
15273;SDS011;7738;49.532;11.156;2024-03-23T01:00:39;10.07;;;4.28;;
15273;SDS011;7738;49.532;11.156;2024-03-23T01:03:06;6.25;;;4.18;;
15273;SDS011;7738;49.532;11.156;2024-03-23T01:05:32;7.80;;;4.97;;
15273;SDS011;7738;49.532;11.156;2024-03-23T01:07:58;7.40;;;4.40;;
15273;SDS011;7738;49.532;11.156;2024-03-23T01:10:25;9.07;;;4.55;;
15273;SDS011;7738;49.532;11.156;2024-03-23T01:12:54;9.10;;;4.70;;
15273;SDS011;7738;49.532;11.156;2024-03-23T01:15:20;6.22;;;4.85;;
15273;SDS011;7738;49.532;11.156;2024-03-23T01:17:47;9.23;;;4.95;;
15273;SDS011;7738;49.532;11.156;2024-03-23T01:20:14;7.50;;;5.18;;
15273;SDS011;7738;49.532;11.156;2024-03-23T01:22:40;7.25;;;4.60;;
15273;SDS011;7738;49.532;11.156;2024-03-23T01:25:07;7.22;;;4.18;;
15273;SDS011;7738;49.532;11.156;2024-03-23T01:27:33;6.25;;;3.88;;
15273;SDS011;7738;49.532;11.156;2024-03-23T01:30:02;5.90;;;4.47;;
15273;SDS011;7738;49.532;11.156;2024-03-23T01:32:29;6.70;;;4.25;;
15273;SDS011;7738;49.532;11.156;2024-03-23T01:34:55;5.18;;;3.85;;
15273;SDS011;7738;49.532;11.156;2024-03-23T01:37:22;6.50;;;4.50;;
15273;SDS011;7738;49.532;11.156;2024-03-23T01:39:48;7.53;;;4.50;;
15273;SDS011;7738;49.532;11.156;2024-03-23T01:42:15;7.65;;;5.07;;
15273;SDS011;7738;49.532;11.156;2024-03-23T01:44:41;6.43;;;4.35;;
15273;SDS011;7738;49.532;11.156;2024-03-23T01:47:10;5.47;;;4.15;;
15273;SDS011;7738;49.532;11.156;2024-03-23T01:49:37;4.75;;;3.95;;
15273;SDS011;7738;49.532;11.156;2024-03-23T01:52:03;5.60;;;4.43;;
15273;SDS011;7738;49.532;11.156;2024-03-23T01:54:30;7.03;;;5.15;;
15273;SDS011;7738;49.532;11.156;2024-03-23T01:56:57;7.38;;;4.43;;
15273;SDS011;7738;49.532;11.156;2024-03-23T01:59:23;6.57;;;4.63;;
15273;SDS011;7738;49.532;11.156;2024-03-23T02:01:50;6.57;;;4.43;;
15273;SDS011;7738;49.532;11.156;2024-03-23T02:04:21;9.57;;;5.18;;
15273;SDS011;7738;49.532;11.156;2024-03-23T02:06:47;6.45;;;4.53;;
15273;SDS011;7738;49.532;11.156;2024-03-23T02:09:14;6.43;;;3.67;;
15273;SDS011;7738;49.532;11.156;2024-03-23T02:11:40;5.88;;;3.53;;
15273;SDS011;7738;49.532;11.156;2024-03-23T02:14:07;9.38;;;4.47;;
15273;SDS011;7738;49.532;11.156;2024-03-23T02:16:33;7.68;;;3.80;;
15273;SDS011;7738;49.532;11.156;2024-03-23T02:19:00;6.53;;;4.53;;
15273;SDS011;7738;49.532;11.156;2024-03-23T02:21:29;6.63;;;3.90;;
15273;SDS011;7738;49.532;11.156;2024-03-23T02:23:58;6.95;;;4.38;;
15273;SDS011;7738;49.532;11.156;2024-03-23T02:26:24;5.20;;;3.90;;
15273;SDS011;7738;49.532;11.156;2024-03-23T02:28:51;5.25;;;3.70;;
15273;SDS011;7738;49.532;11.156;2024-03-23T02:31:17;6.65;;;4.50;;
15273;SDS011;7738;49.532;11.156;2024-03-23T02:33:44;6.70;;;4.03;;
15273;SDS011;7738;49.532;11.156;2024-03-23T02:36:11;9.07;;;4.45;;
15273;SDS011;7738;49.532;11.156;2024-03-23T02:38:37;6.68;;;4.63;;
15273;SDS011;7738;49.532;11.156;2024-03-23T02:41:07;8.18;;;4.85;;
15273;SDS011;7738;49.532;11.156;2024-03-23T02:43:33;7.32;;;4.80;;
15273;SDS011;7738;49.532;11.156;2024-03-23T02:46:00;7.63;;;4.55;;
15273;SDS011;7738;49.532;11.156;2024-03-23T02:48:27;6.75;;;4.20;;
15273;SDS011;7738;49.532;11.156;2024-03-23T02:50:54;5.97;;;3.85;;
15273;SDS011;7738;49.532;11.156;2024-03-23T02:53:21;6.93;;;4.63;;
15273;SDS011;7738;49.532;11.156;2024-03-23T02:55:48;5.72;;;4.03;;
15273;SDS011;7738;49.532;11.156;2024-03-23T02:58:17;5.72;;;3.53;;
15273;SDS011;7738;49.532;11.156;2024-03-23T03:00:44;6.63;;;4.35;;
15273;SDS011;7738;49.532;11.156;2024-03-23T03:03:11;7.53;;;4.13;;
15273;SDS011;7738;49.532;11.156;2024-03-23T03:05:37;7.32;;;4.45;;
15273;SDS011;7738;49.532;11.156;2024-03-23T03:08:04;6.78;;;4.25;;
15273;SDS011;7738;49.532;11.156;2024-03-23T03:10:31;5.50;;;4.03;;
15273;SDS011;7738;49.532;11.156;2024-03-23T03:12:58;8.93;;;4.80;;
15273;SDS011;7738;49.532;11.156;2024-03-23T03:15:28;7.15;;;4.20;;
15273;SDS011;7738;49.532;11.156;2024-03-23T03:17:54;6.68;;;4.35;;
15273;SDS011;7738;49.532;11.156;2024-03-23T03:20:21;8.38;;;4.55;;
15273;SDS011;7738;49.532;11.156;2024-03-23T03:22:48;10.05;;;4.50;;
15273;SDS011;7738;49.532;11.156;2024-03-23T03:25:15;8.07;;;3.80;;
15273;SDS011;7738;49.532;11.156;2024-03-23T03:27:41;5.10;;;4.03;;
15273;SDS011;7738;49.532;11.156;2024-03-23T03:30:09;6.38;;;4.40;;
15273;SDS011;7738;49.532;11.156;2024-03-23T03:32:39;8.82;;;4.78;;
15273;SDS011;7738;49.532;11.156;2024-03-23T03:35:05;7.40;;;4.88;;
15273;SDS011;7738;49.532;11.156;2024-03-23T03:37:32;7.40;;;4.72;;
15273;SDS011;7738;49.532;11.156;2024-03-23T03:39:59;10.48;;;4.60;;
15273;SDS011;7738;49.532;11.156;2024-03-23T03:42:25;6.57;;;4.25;;
15273;SDS011;7738;49.532;11.156;2024-03-23T03:44:52;6.18;;;4.03;;
15273;SDS011;7738;49.532;11.156;2024-03-23T03:47:19;8.82;;;4.53;;
15273;SDS011;7738;49.532;11.156;2024-03-23T03:49:48;8.55;;;4.60;;
15273;SDS011;7738;49.532;11.156;2024-03-23T03:52:15;7.28;;;4.72;;
15273;SDS011;7738;49.532;11.156;2024-03-23T03:54:41;8.40;;;4.40;;
15273;SDS011;7738;49.532;11.156;2024-03-23T03:57:08;6.97;;;5.30;;
15273;SDS011;7738;49.532;11.156;2024-03-23T03:59:35;7.93;;;4.05;;
15273;SDS011;7738;49.532;11.156;2024-03-23T04:02:01;7.40;;;5.13;;
15273;SDS011;7738;49.532;11.156;2024-03-23T04:04:28;6.45;;;4.57;;
15273;SDS011;7738;49.532;11.156;2024-03-23T04:07:00;7.55;;;5.18;;
15273;SDS011;7738;49.532;11.156;2024-03-23T04:09:27;13.20;;;6.28;;
15273;SDS011;7738;49.532;11.156;2024-03-23T04:11:54;7.13;;;5.88;;
15273;SDS011;7738;49.532;11.156;2024-03-23T04:14:21;7.82;;;5.05;;
15273;SDS011;7738;49.532;11.156;2024-03-23T04:16:47;7.22;;;4.88;;
15273;SDS011;7738;49.532;11.156;2024-03-23T04:19:14;8.60;;;5.60;;
15273;SDS011;7738;49.532;11.156;2024-03-23T04:21:41;7.00;;;5.00;;
15273;SDS011;7738;49.532;11.156;2024-03-23T04:24:10;6.40;;;4.45;;
15273;SDS011;7738;49.532;11.156;2024-03-23T04:26:40;7.50;;;5.38;;
15273;SDS011;7738;49.532;11.156;2024-03-23T04:29:07;6.90;;;4.78;;
15273;SDS011;7738;49.532;11.156;2024-03-23T04:31:34;11.52;;;6.35;;
15273;SDS011;7738;49.532;11.156;2024-03-23T04:34:00;11.27;;;5.82;;
15273;SDS011;7738;49.532;11.156;2024-03-23T04:36:27;9.02;;;5.72;;
15273;SDS011;7738;49.532;11.156;2024-03-23T04:38:54;7.80;;;5.25;;
15273;SDS011;7738;49.532;11.156;2024-03-23T04:41:23;11.10;;;6.22;;
15273;SDS011;7738;49.532;11.156;2024-03-23T04:43:49;7.20;;;5.18;;
15273;SDS011;7738;49.532;11.156;2024-03-23T04:46:16;7.00;;;5.30;;
15273;SDS011;7738;49.532;11.156;2024-03-23T04:48:43;11.15;;;5.22;;
15273;SDS011;7738;49.532;11.156;2024-03-23T04:51:10;9.38;;;5.10;;
15273;SDS011;7738;49.532;11.156;2024-03-23T04:53:37;9.02;;;6.30;;
15273;SDS011;7738;49.532;11.156;2024-03-23T04:56:04;8.73;;;6.03;;
15273;SDS011;7738;49.532;11.156;2024-03-23T04:58:33;9.70;;;5.80;;
15273;SDS011;7738;49.532;11.156;2024-03-23T05:01:00;9.68;;;5.13;;
15273;SDS011;7738;49.532;11.156;2024-03-23T05:03:26;8.10;;;5.32;;
15273;SDS011;7738;49.532;11.156;2024-03-23T05:05:53;9.70;;;4.88;;
15273;SDS011;7738;49.532;11.156;2024-03-23T05:08:20;8.05;;;5.35;;
15273;SDS011;7738;49.532;11.156;2024-03-23T05:10:46;7.03;;;5.00;;
15273;SDS011;7738;49.532;11.156;2024-03-23T05:13:13;10.55;;;4.82;;
15273;SDS011;7738;49.532;11.156;2024-03-23T05:15:43;5.82;;;4.28;;
15273;SDS011;7738;49.532;11.156;2024-03-23T05:18:10;8.90;;;5.13;;
15273;SDS011;7738;49.532;11.156;2024-03-23T05:20:36;6.82;;;4.70;;
15273;SDS011;7738;49.532;11.156;2024-03-23T05:23:03;8.35;;;4.57;;
15273;SDS011;7738;49.532;11.156;2024-03-23T05:25:30;9.80;;;4.50;;
15273;SDS011;7738;49.532;11.156;2024-03-23T05:27:57;6.55;;;5.15;;
15273;SDS011;7738;49.532;11.156;2024-03-23T05:30:23;6.55;;;4.28;;
15273;SDS011;7738;49.532;11.156;2024-03-23T05:32:53;6.45;;;5.05;;
15273;SDS011;7738;49.532;11.156;2024-03-23T05:35:19;6.75;;;4.90;;
15273;SDS011;7738;49.532;11.156;2024-03-23T05:37:46;8.50;;;4.45;;
15273;SDS011;7738;49.532;11.156;2024-03-23T05:40:12;6.93;;;4.45;;
15273;SDS011;7738;49.532;11.156;2024-03-23T05:42:39;6.65;;;4.70;;
15273;SDS011;7738;49.532;11.156;2024-03-23T05:45:06;7.28;;;5.00;;
15273;SDS011;7738;49.532;11.156;2024-03-23T05:47:33;7.05;;;4.22;;
15273;SDS011;7738;49.532;11.156;2024-03-23T05:50:03;7.18;;;5.22;;
15273;SDS011;7738;49.532;11.156;2024-03-23T05:52:30;5.38;;;4.18;;
15273;SDS011;7738;49.532;11.156;2024-03-23T05:54:56;5.38;;;4.05;;
15273;SDS011;7738;49.532;11.156;2024-03-23T05:57:24;5.97;;;4.70;;
15273;SDS011;7738;49.532;11.156;2024-03-23T05:59:51;6.45;;;3.88;;
15273;SDS011;7738;49.532;11.156;2024-03-23T06:02:17;9.63;;;4.40;;
15273;SDS011;7738;49.532;11.156;2024-03-23T06:04:45;9.52;;;3.80;;
15273;SDS011;7738;49.532;11.156;2024-03-23T06:07:14;6.40;;;3.63;;
15273;SDS011;7738;49.532;11.156;2024-03-23T06:09:40;5.28;;;3.55;;
15273;SDS011;7738;49.532;11.156;2024-03-23T06:12:07;8.18;;;3.80;;
15273;SDS011;7738;49.532;11.156;2024-03-23T06:14:34;9.32;;;4.25;;
15273;SDS011;7738;49.532;11.156;2024-03-23T06:17:01;5.22;;;3.65;;
15273;SDS011;7738;49.532;11.156;2024-03-23T06:19:27;8.50;;;3.85;;
15273;SDS011;7738;49.532;11.156;2024-03-23T06:21:54;8.32;;;3.97;;
15273;SDS011;7738;49.532;11.156;2024-03-23T06:24:24;5.43;;;4.70;;
15273;SDS011;7738;49.532;11.156;2024-03-23T06:26:50;6.75;;;4.32;;
15273;SDS011;7738;49.532;11.156;2024-03-23T06:29:17;5.70;;;4.32;;
15273;SDS011;7738;49.532;11.156;2024-03-23T06:31:43;6.25;;;4.47;;
15273;SDS011;7738;49.532;11.156;2024-03-23T06:34:10;9.38;;;4.85;;
15273;SDS011;7738;49.532;11.156;2024-03-23T06:36:37;7.05;;;4.85;;
15273;SDS011;7738;49.532;11.156;2024-03-23T06:39:03;7.07;;;4.90;;
15273;SDS011;7738;49.532;11.156;2024-03-23T06:41:33;7.90;;;5.00;;
15273;SDS011;7738;49.532;11.156;2024-03-23T06:44:00;9.55;;;4.95;;
15273;SDS011;7738;49.532;11.156;2024-03-23T06:46:26;8.25;;;5.28;;
15273;SDS011;7738;49.532;11.156;2024-03-23T06:48:53;9.20;;;5.90;;
15273;SDS011;7738;49.532;11.156;2024-03-23T06:51:20;9.48;;;5.53;;
15273;SDS011;7738;49.532;11.156;2024-03-23T06:53:46;9.85;;;6.15;;
15273;SDS011;7738;49.532;11.156;2024-03-23T06:56:13;8.75;;;6.47;;
15273;SDS011;7738;49.532;11.156;2024-03-23T06:58:42;9.57;;;6.68;;
15273;SDS011;7738;49.532;11.156;2024-03-23T07:01:09;9.40;;;5.68;;
15273;SDS011;7738;49.532;11.156;2024-03-23T07:03:35;8.30;;;5.32;;
15273;SDS011;7738;49.532;11.156;2024-03-23T07:06:02;8.18;;;6.35;;
15273;SDS011;7738;49.532;11.156;2024-03-23T07:08:29;9.85;;;5.55;;
15273;SDS011;7738;49.532;11.156;2024-03-23T07:10:55;8.85;;;5.88;;
15273;SDS011;7738;49.532;11.156;2024-03-23T07:13:22;8.77;;;4.80;;
15273;SDS011;7738;49.532;11.156;2024-03-23T07:15:54;8.00;;;5.43;;
15273;SDS011;7738;49.532;11.156;2024-03-23T07:18:21;9.07;;;4.97;;
15273;SDS011;7738;49.532;11.156;2024-03-23T07:20:54;7.57;;;5.47;;
15273;SDS011;7738;49.532;11.156;2024-03-23T07:23:22;9.55;;;5.32;;
15273;SDS011;7738;49.532;11.156;2024-03-23T07:25:57;10.65;;;5.18;;
15273;SDS011;7738;49.532;11.156;2024-03-23T07:28:24;8.15;;;4.68;;
15273;SDS011;7738;49.532;11.156;2024-03-23T07:31:06;6.57;;;4.75;;
15273;SDS011;7738;49.532;11.156;2024-03-23T07:33:34;8.35;;;5.28;;
15273;SDS011;7738;49.532;11.156;2024-03-23T07:36:01;6.05;;;4.15;;
15273;SDS011;7738;49.532;11.156;2024-03-23T07:38:28;7.38;;;4.47;;
15273;SDS011;7738;49.532;11.156;2024-03-23T07:41:05;7.55;;;4.05;;
15273;SDS011;7738;49.532;11.156;2024-03-23T07:43:32;9.35;;;4.65;;
15273;SDS011;7738;49.532;11.156;2024-03-23T07:45:59;6.10;;;4.45;;
15273;SDS011;7738;49.532;11.156;2024-03-23T07:48:28;8.55;;;3.92;;
15273;SDS011;7738;49.532;11.156;2024-03-23T07:50:58;9.10;;;5.28;;
15273;SDS011;7738;49.532;11.156;2024-03-23T07:53:25;7.90;;;4.60;;
15273;SDS011;7738;49.532;11.156;2024-03-23T07:55:52;8.38;;;4.93;;
15273;SDS011;7738;49.532;11.156;2024-03-23T07:58:22;8.15;;;4.55;;
15273;SDS011;7738;49.532;11.156;2024-03-23T08:00:49;6.43;;;4.50;;
15273;SDS011;7738;49.532;11.156;2024-03-23T08:03:15;7.88;;;4.88;;
15273;SDS011;7738;49.532;11.156;2024-03-23T08:05:44;7.40;;;4.55;;
15273;SDS011;7738;49.532;11.156;2024-03-23T08:08:11;7.88;;;4.70;;
15273;SDS011;7738;49.532;11.156;2024-03-23T08:10:46;10.27;;;4.93;;
15273;SDS011;7738;49.532;11.156;2024-03-23T08:13:13;8.63;;;4.55;;
15273;SDS011;7738;49.532;11.156;2024-03-23T08:15:39;8.70;;;4.70;;
15273;SDS011;7738;49.532;11.156;2024-03-23T08:18:06;8.48;;;4.95;;
15273;SDS011;7738;49.532;11.156;2024-03-23T08:20:33;8.70;;;5.60;;
15273;SDS011;7738;49.532;11.156;2024-03-23T08:23:02;9.93;;;4.82;;
15273;SDS011;7738;49.532;11.156;2024-03-23T08:25:30;8.70;;;4.82;;
15273;SDS011;7738;49.532;11.156;2024-03-23T08:27:56;8.43;;;4.53;;
15273;SDS011;7738;49.532;11.156;2024-03-23T08:30:23;6.40;;;3.75;;
15273;SDS011;7738;49.532;11.156;2024-03-23T08:32:50;6.10;;;3.58;;
15273;SDS011;7738;49.532;11.156;2024-03-23T08:35:16;5.05;;;3.47;;
15273;SDS011;7738;49.532;11.156;2024-03-23T08:37:43;5.57;;;3.38;;
15273;SDS011;7738;49.532;11.156;2024-03-23T08:40:12;4.55;;;2.97;;
15273;SDS011;7738;49.532;11.156;2024-03-23T08:42:39;6.32;;;2.85;;
15273;SDS011;7738;49.532;11.156;2024-03-23T08:45:05;4.20;;;2.67;;
15273;SDS011;7738;49.532;11.156;2024-03-23T08:47:34;6.40;;;3.28;;
15273;SDS011;7738;49.532;11.156;2024-03-23T08:50:01;6.40;;;3.10;;
15273;SDS011;7738;49.532;11.156;2024-03-23T08:52:27;4.20;;;2.42;;
15273;SDS011;7738;49.532;11.156;2024-03-23T08:54:54;2.95;;;2.17;;
15273;SDS011;7738;49.532;11.156;2024-03-23T08:57:24;4.97;;;2.00;;
15273;SDS011;7738;49.532;11.156;2024-03-23T08:59:50;2.50;;;1.80;;
15273;SDS011;7738;49.532;11.156;2024-03-23T09:02:17;2.45;;;1.23;;
15273;SDS011;7738;49.532;11.156;2024-03-23T09:04:44;2.10;;;1.38;;
15273;SDS011;7738;49.532;11.156;2024-03-23T09:07:10;1.33;;;1.13;;
15273;SDS011;7738;49.532;11.156;2024-03-23T09:09:38;3.50;;;1.05;;
15273;SDS011;7738;49.532;11.156;2024-03-23T09:12:05;2.05;;;1.17;;
15273;SDS011;7738;49.532;11.156;2024-03-23T09:14:35;1.27;;;0.93;;
15273;SDS011;7738;49.532;11.156;2024-03-23T09:17:01;2.25;;;0.85;;
15273;SDS011;7738;49.532;11.156;2024-03-23T09:19:28;1.00;;;0.47;;
15273;SDS011;7738;49.532;11.156;2024-03-23T09:21:55;0.95;;;0.43;;
15273;SDS011;7738;49.532;11.156;2024-03-23T09:24:21;1.40;;;0.30;;
15273;SDS011;7738;49.532;11.156;2024-03-23T09:26:48;1.42;;;0.45;;
15273;SDS011;7738;49.532;11.156;2024-03-23T09:29:14;0.38;;;0.10;;
15273;SDS011;7738;49.532;11.156;2024-03-23T09:31:43;0.20;;;0.10;;
15273;SDS011;7738;49.532;11.156;2024-03-23T09:34:10;0.35;;;0.05;;
15273;SDS011;7738;49.532;11.156;2024-03-23T09:36:36;0.10;;;0.10;;
15273;SDS011;7738;49.532;11.156;2024-03-23T09:39:03;0.00;;;0.00;;
15273;SDS011;7738;49.532;11.156;2024-03-23T09:41:29;0.08;;;0.05;;
15273;SDS011;7738;49.532;11.156;2024-03-23T09:43:56;0.20;;;0.10;;
15273;SDS011;7738;49.532;11.156;2024-03-23T09:46:22;0.13;;;0.00;;
15273;SDS011;7738;49.532;11.156;2024-03-23T09:48:52;2.15;;;0.00;;
15273;SDS011;7738;49.532;11.156;2024-03-23T09:51:18;0.25;;;0.00;;
15273;SDS011;7738;49.532;11.156;2024-03-23T09:53:45;0.08;;;0.00;;
15273;SDS011;7738;49.532;11.156;2024-03-23T09:56:12;0.28;;;0.00;;
15273;SDS011;7738;49.532;11.156;2024-03-23T09:58:38;0.22;;;0.00;;
15273;SDS011;7738;49.532;11.156;2024-03-23T10:01:05;0.25;;;0.10;;
15273;SDS011;7738;49.532;11.156;2024-03-23T10:03:32;0.00;;;0.00;;
15273;SDS011;7738;49.532;11.156;2024-03-23T10:06:04;1.35;;;0.00;;
15273;SDS011;7738;49.532;11.156;2024-03-23T10:08:31;0.32;;;0.10;;
15273;SDS011;7738;49.532;11.156;2024-03-23T10:10:57;0.25;;;0.00;;
15273;SDS011;7738;49.532;11.156;2024-03-23T10:13:38;0.22;;;0.03;;
15273;SDS011;7738;49.532;11.156;2024-03-23T10:16:07;0.10;;;0.00;;
15273;SDS011;7738;49.532;11.156;2024-03-23T10:18:36;0.17;;;0.00;;
15273;SDS011;7738;49.532;11.156;2024-03-23T10:21:09;1.10;;;0.05;;
15273;SDS011;7738;49.532;11.156;2024-03-23T10:23:37;0.20;;;0.10;;
15273;SDS011;7738;49.532;11.156;2024-03-23T10:26:13;1.55;;;0.45;;
15273;SDS011;7738;49.532;11.156;2024-03-23T10:31:31;0.30;;;0.08;;
15273;SDS011;7738;49.532;11.156;2024-03-23T10:33:57;0.55;;;0.15;;
15273;SDS011;7738;49.532;11.156;2024-03-23T10:36:26;0.38;;;0.20;;
15273;SDS011;7738;49.532;11.156;2024-03-23T10:38:54;2.08;;;0.43;;
15273;SDS011;7738;49.532;11.156;2024-03-23T10:41:21;1.45;;;0.50;;
15273;SDS011;7738;49.532;11.156;2024-03-23T10:43:48;2.88;;;0.75;;
15273;SDS011;7738;49.532;11.156;2024-03-23T10:46:15;3.25;;;0.77;;
15273;SDS011;7738;49.532;11.156;2024-03-23T10:48:42;2.22;;;0.70;;
15273;SDS011;7738;49.532;11.156;2024-03-23T10:51:09;1.50;;;0.40;;
15273;SDS011;7738;49.532;11.156;2024-03-23T10:53:39;0.57;;;0.20;;
15273;SDS011;7738;49.532;11.156;2024-03-23T10:56:06;1.38;;;0.68;;
15273;SDS011;7738;49.532;11.156;2024-03-23T10:58:35;2.13;;;0.68;;
15273;SDS011;7738;49.532;11.156;2024-03-23T11:01:04;3.00;;;0.43;;
15273;SDS011;7738;49.532;11.156;2024-03-23T11:03:34;2.10;;;0.82;;
15273;SDS011;7738;49.532;11.156;2024-03-23T11:06:02;3.70;;;0.65;;
15273;SDS011;7738;49.532;11.156;2024-03-23T11:08:33;0.98;;;0.52;;
15273;SDS011;7738;49.532;11.156;2024-03-23T11:13:47;4.93;;;0.88;;
15273;SDS011;7738;49.532;11.156;2024-03-23T11:16:15;1.35;;;0.90;;
15273;SDS011;7738;49.532;11.156;2024-03-23T11:18:42;1.48;;;0.70;;
15273;SDS011;7738;49.532;11.156;2024-03-23T11:21:09;1.88;;;0.68;;
15273;SDS011;7738;49.532;11.156;2024-03-23T11:23:36;2.40;;;0.70;;
15273;SDS011;7738;49.532;11.156;2024-03-23T11:26:06;2.70;;;0.60;;
15273;SDS011;7738;49.532;11.156;2024-03-23T11:28:35;2.67;;;0.52;;
15273;SDS011;7738;49.532;11.156;2024-03-23T11:31:08;2.75;;;0.93;;
15273;SDS011;7738;49.532;11.156;2024-03-23T11:33:35;3.90;;;0.57;;
15273;SDS011;7738;49.532;11.156;2024-03-23T11:36:02;3.80;;;0.77;;
15273;SDS011;7738;49.532;11.156;2024-03-23T11:38:29;1.48;;;0.60;;
15273;SDS011;7738;49.532;11.156;2024-03-23T11:41:02;0.90;;;0.57;;
15273;SDS011;7738;49.532;11.156;2024-03-23T11:43:29;1.13;;;0.65;;
15273;SDS011;7738;49.532;11.156;2024-03-23T11:45:58;2.03;;;1.00;;
15273;SDS011;7738;49.532;11.156;2024-03-23T11:48:24;2.03;;;1.30;;
15273;SDS011;7738;49.532;11.156;2024-03-23T11:50:56;1.45;;;0.70;;
15273;SDS011;7738;49.532;11.156;2024-03-23T11:53:24;3.28;;;1.20;;
15273;SDS011;7738;49.532;11.156;2024-03-23T11:55:53;1.95;;;1.00;;
15273;SDS011;7738;49.532;11.156;2024-03-23T11:58:21;1.10;;;0.60;;
15273;SDS011;7738;49.532;11.156;2024-03-23T12:00:49;2.08;;;0.90;;
15273;SDS011;7738;49.532;11.156;2024-03-23T12:03:20;4.72;;;0.60;;
15273;SDS011;7738;49.532;11.156;2024-03-23T12:05:47;4.53;;;1.23;;
15273;SDS011;7738;49.532;11.156;2024-03-23T12:08:16;2.80;;;1.08;;
15273;SDS011;7738;49.532;11.156;2024-03-23T12:10:44;3.03;;;1.08;;
15273;SDS011;7738;49.532;11.156;2024-03-23T12:13:14;3.53;;;1.35;;
15273;SDS011;7738;49.532;11.156;2024-03-23T12:15:48;1.70;;;0.85;;
15273;SDS011;7738;49.532;11.156;2024-03-23T12:18:16;3.35;;;1.30;;
15273;SDS011;7738;49.532;11.156;2024-03-23T12:20:45;4.82;;;0.68;;
15273;SDS011;7738;49.532;11.156;2024-03-23T12:23:12;3.20;;;1.10;;
15273;SDS011;7738;49.532;11.156;2024-03-23T12:25:41;4.65;;;1.27;;
15273;SDS011;7738;49.532;11.156;2024-03-23T12:28:08;3.78;;;0.95;;
15273;SDS011;7738;49.532;11.156;2024-03-23T12:30:35;3.25;;;0.90;;
15273;SDS011;7738;49.532;11.156;2024-03-23T12:33:04;2.17;;;0.60;;
15273;SDS011;7738;49.532;11.156;2024-03-23T12:35:31;1.70;;;0.82;;
15273;SDS011;7738;49.532;11.156;2024-03-23T12:38:00;4.22;;;0.90;;
15273;SDS011;7738;49.532;11.156;2024-03-23T12:40:27;6.97;;;1.25;;
15273;SDS011;7738;49.532;11.156;2024-03-23T12:42:53;2.53;;;1.00;;
15273;SDS011;7738;49.532;11.156;2024-03-23T12:45:20;3.20;;;0.88;;
15273;SDS011;7738;49.532;11.156;2024-03-23T12:47:47;4.68;;;1.15;;
15273;SDS011;7738;49.532;11.156;2024-03-23T12:50:13;3.10;;;0.70;;
15273;SDS011;7738;49.532;11.156;2024-03-23T12:52:40;7.93;;;0.98;;
15273;SDS011;7738;49.532;11.156;2024-03-23T12:55:09;3.33;;;1.23;;
15273;SDS011;7738;49.532;11.156;2024-03-23T12:57:35;5.22;;;0.95;;
15273;SDS011;7738;49.532;11.156;2024-03-23T13:00:03;2.45;;;0.63;;
15273;SDS011;7738;49.532;11.156;2024-03-23T13:02:30;4.25;;;1.20;;
15273;SDS011;7738;49.532;11.156;2024-03-23T13:04:56;7.35;;;1.13;;
15273;SDS011;7738;49.532;11.156;2024-03-23T13:07:23;2.80;;;0.88;;
15273;SDS011;7738;49.532;11.156;2024-03-23T13:09:50;6.32;;;0.95;;
15273;SDS011;7738;49.532;11.156;2024-03-23T13:12:19;3.08;;;1.00;;
15273;SDS011;7738;49.532;11.156;2024-03-23T13:14:46;4.95;;;1.50;;
15273;SDS011;7738;49.532;11.156;2024-03-23T13:17:12;2.55;;;0.82;;
15273;SDS011;7738;49.532;11.156;2024-03-23T13:19:39;2.42;;;0.93;;
15273;SDS011;7738;49.532;11.156;2024-03-23T13:22:06;3.90;;;0.95;;
15273;SDS011;7738;49.532;11.156;2024-03-23T13:24:33;3.78;;;0.93;;
15273;SDS011;7738;49.532;11.156;2024-03-23T13:26:59;2.22;;;1.05;;
15273;SDS011;7738;49.532;11.156;2024-03-23T13:29:28;4.30;;;1.52;;
15273;SDS011;7738;49.532;11.156;2024-03-23T13:31:55;4.35;;;0.77;;
15273;SDS011;7738;49.532;11.156;2024-03-23T13:34:21;3.40;;;0.70;;
15273;SDS011;7738;49.532;11.156;2024-03-23T13:36:48;2.45;;;0.95;;
15273;SDS011;7738;49.532;11.156;2024-03-23T13:39:14;2.55;;;0.60;;
15273;SDS011;7738;49.532;11.156;2024-03-23T13:41:41;5.97;;;1.42;;
15273;SDS011;7738;49.532;11.156;2024-03-23T13:44:09;2.70;;;0.77;;
15273;SDS011;7738;49.532;11.156;2024-03-23T13:46:39;3.97;;;1.00;;
15273;SDS011;7738;49.532;11.156;2024-03-23T13:49:06;4.28;;;1.25;;
15273;SDS011;7738;49.532;11.156;2024-03-23T13:51:33;3.97;;;1.35;;
15273;SDS011;7738;49.532;11.156;2024-03-23T13:53:59;3.33;;;1.25;;
15273;SDS011;7738;49.532;11.156;2024-03-23T13:56:26;4.55;;;1.40;;
15273;SDS011;7738;49.532;11.156;2024-03-23T13:58:54;6.72;;;1.05;;
15273;SDS011;7738;49.532;11.156;2024-03-23T14:01:21;6.55;;;1.10;;
15273;SDS011;7738;49.532;11.156;2024-03-23T14:03:50;3.45;;;0.95;;
15273;SDS011;7738;49.532;11.156;2024-03-23T14:06:17;1.58;;;0.80;;
15273;SDS011;7738;49.532;11.156;2024-03-23T14:08:43;3.97;;;0.82;;
15273;SDS011;7738;49.532;11.156;2024-03-23T14:11:10;4.22;;;1.00;;
15273;SDS011;7738;49.532;11.156;2024-03-23T14:13:37;4.55;;;1.02;;
15273;SDS011;7738;49.532;11.156;2024-03-23T14:16:04;3.40;;;0.88;;
15273;SDS011;7738;49.532;11.156;2024-03-23T14:18:31;5.43;;;0.90;;
15273;SDS011;7738;49.532;11.156;2024-03-23T14:21:00;3.70;;;1.17;;
15273;SDS011;7738;49.532;11.156;2024-03-23T14:23:27;7.10;;;1.08;;
15273;SDS011;7738;49.532;11.156;2024-03-23T14:25:55;4.05;;;1.35;;
15273;SDS011;7738;49.532;11.156;2024-03-23T14:28:22;4.75;;;0.80;;
15273;SDS011;7738;49.532;11.156;2024-03-23T14:30:49;5.38;;;1.13;;
15273;SDS011;7738;49.532;11.156;2024-03-23T14:33:15;3.33;;;1.48;;
15273;SDS011;7738;49.532;11.156;2024-03-23T14:35:42;5.32;;;1.25;;
15273;SDS011;7738;49.532;11.156;2024-03-23T14:38:11;2.92;;;0.75;;
15273;SDS011;7738;49.532;11.156;2024-03-23T14:40:38;7.15;;;1.08;;
15273;SDS011;7738;49.532;11.156;2024-03-23T14:43:04;4.15;;;1.15;;
15273;SDS011;7738;49.532;11.156;2024-03-23T14:45:31;4.82;;;1.30;;
15273;SDS011;7738;49.532;11.156;2024-03-23T14:47:57;2.70;;;0.75;;
15273;SDS011;7738;49.532;11.156;2024-03-23T14:50:24;2.92;;;1.08;;
15273;SDS011;7738;49.532;11.156;2024-03-23T14:52:50;2.75;;;0.98;;
15273;SDS011;7738;49.532;11.156;2024-03-23T14:55:19;2.47;;;1.27;;
15273;SDS011;7738;49.532;11.156;2024-03-23T14:57:45;6.25;;;2.17;;
15273;SDS011;7738;49.532;11.156;2024-03-23T15:00:12;4.43;;;1.60;;
15273;SDS011;7738;49.532;11.156;2024-03-23T15:02:39;4.03;;;0.80;;
15273;SDS011;7738;49.532;11.156;2024-03-23T15:05:06;11.57;;;4.97;;
15273;SDS011;7738;49.532;11.156;2024-03-23T15:07:34;64.45;;;38.20;;
15273;SDS011;7738;49.532;11.156;2024-03-23T15:10:01;14.23;;;11.30;;
15273;SDS011;7738;49.532;11.156;2024-03-23T15:12:30;8.02;;;5.07;;
15273;SDS011;7738;49.532;11.156;2024-03-23T15:14:58;5.57;;;2.70;;
15273;SDS011;7738;49.532;11.156;2024-03-23T15:17:25;4.25;;;2.03;;
15273;SDS011;7738;49.532;11.156;2024-03-23T15:19:52;4.72;;;1.17;;
15273;SDS011;7738;49.532;11.156;2024-03-23T15:22:19;8.27;;;1.40;;
15273;SDS011;7738;49.532;11.156;2024-03-23T15:24:46;4.82;;;1.70;;
15273;SDS011;7738;49.532;11.156;2024-03-23T15:27:12;4.53;;;2.45;;
15273;SDS011;7738;49.532;11.156;2024-03-23T15:29:41;11.90;;;1.45;;
15273;SDS011;7738;49.532;11.156;2024-03-23T15:32:08;5.15;;;2.65;;
15273;SDS011;7738;49.532;11.156;2024-03-23T15:34:34;5.90;;;1.42;;
15273;SDS011;7738;49.532;11.156;2024-03-23T15:37:01;4.15;;;1.88;;
15273;SDS011;7738;49.532;11.156;2024-03-23T15:39:27;5.47;;;3.22;;
15273;SDS011;7738;49.532;11.156;2024-03-23T15:41:54;13.60;;;10.05;;
15273;SDS011;7738;49.532;11.156;2024-03-23T15:44:20;31.17;;;21.98;;
15273;SDS011;7738;49.532;11.156;2024-03-23T15:46:49;12.20;;;6.47;;
15273;SDS011;7738;49.532;11.156;2024-03-23T15:49:16;2.88;;;2.33;;